Main page
METAR-TAF:

METAR-TAF

Airports :

Khartoum International Airport

Khartoum, Sudan

latitude: 15-36N, longitude: 032-33E, elevation: 382 m

Current weather observation

The report was made 18 minutes ago, at 21:00 UTC
Wind 7 kt from the North
Temperature 24°C
Humidity 29%
Pressure 1013 hPa
Visibility 10 km or more
no clouds below 1500 m and no cumulonimbus

METAR: HSSS 102100Z 35007KT CAVOK 24/05 Q1013 NOSIG

Time: 23:18 (21:18 UTC)

Forecast

The report was made 4 hours and 18 minutes ago, at 17:00 UTC
Forecast valid from 10 at 18 UTC to 11 at 24 UTC
Wind 9 kt from the North/Northwest
Visibility 10 km or more
no clouds below 1500 m and no cumulonimbus
Temporary
from 11 at 04 UTC to 11 at 09 UTC
Visibility: 6000 m

TAF: HSSS 101700Z 1018/1124 34009KT CAVOK TEMPO 1104/1109 6000 NSC

Weather observations and forecasts of more than 4000 airports (METAR and TAF reports).

The available stations are represented by yellow and red dots on the map.

Hover mouse over dot to see the name of the station.

Then click to see weather observations and forecasts.

To change the map : click on the green buttons with a black cross to zoom in, on the green button with a dash to zoom out, or on the green arrows for adjacent maps.


METAR-TAF: